sensor_id;sensor_type;location;lat;lon;timestamp;temperature;humidity
24448;DHT22;13348;50.984;5.822;2024-01-15T00:01:14;0.70;99.90
24448;DHT22;13348;50.984;5.822;2024-01-15T00:03:41;0.70;99.90
24448;DHT22;13348;50.984;5.822;2024-01-15T00:06:08;0.60;99.90
24448;DHT22;13348;50.984;5.822;2024-01-15T00:08:34;0.60;99.90
24448;DHT22;13348;50.984;5.822;2024-01-15T00:11:01;0.60;99.90
24448;DHT22;13348;50.984;5.822;2024-01-15T00:13:27;0.60;99.90
24448;DHT22;13348;50.984;5.822;2024-01-15T00:15:54;0.50;99.90
24448;DHT22;13348;50.984;5.822;2024-01-15T00:18:23;0.60;99.90
24448;DHT22;13348;50.984;5.822;2024-01-15T00:20:50;0.50;99.90
24448;DHT22;13348;50.984;5.822;2024-01-15T00:23:17;0.50;99.90
24448;DHT22;13348;50.984;5.822;2024-01-15T00:25:44;0.50;99.90
24448;DHT22;13348;50.984;5.822;2024-01-15T00:28:10;0.60;99.90
24448;DHT22;13348;50.984;5.822;2024-01-15T00:30:37;0.60;99.90
24448;DHT22;13348;50.984;5.822;2024-01-15T00:33:04;0.70;99.90
24448;DHT22;13348;50.984;5.822;2024-01-15T00:35:33;0.70;99.90
24448;DHT22;13348;50.984;5.822;2024-01-15T00:38:00;0.70;99.90
24448;DHT22;13348;50.984;5.822;2024-01-15T00:40:26;0.70;99.90
24448;DHT22;13348;50.984;5.822;2024-01-15T00:42:53;0.70;99.90
24448;DHT22;13348;50.984;5.822;2024-01-15T00:45:20;0.60;99.90
24448;DHT22;13348;50.984;5.822;2024-01-15T00:47:47;0.60;99.90
24448;DHT22;13348;50.984;5.822;2024-01-15T00:50:14;0.50;99.90
24448;DHT22;13348;50.984;5.822;2024-01-15T00:52:43;0.50;99.90
24448;DHT22;13348;50.984;5.822;2024-01-15T00:55:09;0.50;99.90
24448;DHT22;13348;50.984;5.822;2024-01-15T00:57:36;0.50;99.90
24448;DHT22;13348;50.984;5.822;2024-01-15T01:00:04;0.50;99.90
24448;DHT22;13348;50.984;5.822;2024-01-15T01:02:32;0.50;99.90
24448;DHT22;13348;50.984;5.822;2024-01-15T01:04:58;0.50;99.90
24448;DHT22;13348;50.984;5.822;2024-01-15T01:07:25;0.60;99.90
24448;DHT22;13348;50.984;5.822;2024-01-15T01:09:54;0.60;99.90
24448;DHT22;13348;50.984;5.822;2024-01-15T01:12:21;0.60;99.90
24448;DHT22;13348;50.984;5.822;2024-01-15T01:14:48;0.60;99.90
24448;DHT22;13348;50.984;5.822;2024-01-15T01:17:15;0.50;99.90
24448;DHT22;13348;50.984;5.822;2024-01-15T01:19:42;0.60;99.90
24448;DHT22;13348;50.984;5.822;2024-01-15T01:22:09;0.60;99.90
24448;DHT22;13348;50.984;5.822;2024-01-15T01:24:36;0.50;99.90
24448;DHT22;13348;50.984;5.822;2024-01-15T01:27:05;0.50;99.90
24448;DHT22;13348;50.984;5.822;2024-01-15T01:29:32;0.50;99.90
24448;DHT22;13348;50.984;5.822;2024-01-15T01:31:59;0.50;99.90
24448;DHT22;13348;50.984;5.822;2024-01-15T01:34:26;0.50;99.90
24448;DHT22;13348;50.984;5.822;2024-01-15T01:36:53;0.50;99.90
24448;DHT22;13348;50.984;5.822;2024-01-15T01:39:20;0.50;99.90
24448;DHT22;13348;50.984;5.822;2024-01-15T01:41:47;0.40;99.90
24448;DHT22;13348;50.984;5.822;2024-01-15T01:44:15;0.40;99.90
24448;DHT22;13348;50.984;5.822;2024-01-15T01:46:42;0.40;99.90
24448;DHT22;13348;50.984;5.822;2024-01-15T01:49:09;0.40;99.90
24448;DHT22;13348;50.984;5.822;2024-01-15T01:51:36;0.40;99.90
24448;DHT22;13348;50.984;5.822;2024-01-15T01:54:04;0.40;99.90
24448;DHT22;13348;50.984;5.822;2024-01-15T01:56:33;0.40;99.90
24448;DHT22;13348;50.984;5.822;2024-01-15T01:59:00;0.40;99.90
24448;DHT22;13348;50.984;5.822;2024-01-15T02:01:29;0.40;99.90
24448;DHT22;13348;50.984;5.822;2024-01-15T02:03:57;0.30;99.90
24448;DHT22;13348;50.984;5.822;2024-01-15T02:06:24;0.40;99.90
24448;DHT22;13348;50.984;5.822;2024-01-15T02:08:51;0.30;99.90
24448;DHT22;13348;50.984;5.822;2024-01-15T02:11:18;0.30;99.90
24448;DHT22;13348;50.984;5.822;2024-01-15T02:13:47;0.30;99.90
24448;DHT22;13348;50.984;5.822;2024-01-15T02:16:14;0.40;99.90
24448;DHT22;13348;50.984;5.822;2024-01-15T02:18:42;0.40;99.90
24448;DHT22;13348;50.984;5.822;2024-01-15T02:21:09;0.40;99.90
24448;DHT22;13348;50.984;5.822;2024-01-15T02:23:39;0.30;99.90
24448;DHT22;13348;50.984;5.822;2024-01-15T02:26:05;0.30;99.90
24448;DHT22;13348;50.984;5.822;2024-01-15T02:28:33;0.30;99.90
24448;DHT22;13348;50.984;5.822;2024-01-15T02:31:00;0.40;99.90
24448;DHT22;13348;50.984;5.822;2024-01-15T02:33:27;0.40;99.90
24448;DHT22;13348;50.984;5.822;2024-01-15T02:35:53;0.50;99.90
24448;DHT22;13348;50.984;5.822;2024-01-15T02:38:20;0.50;99.90
24448;DHT22;13348;50.984;5.822;2024-01-15T02:40:49;0.50;99.90
24448;DHT22;13348;50.984;5.822;2024-01-15T02:43:16;0.50;99.90
24448;DHT22;13348;50.984;5.822;2024-01-15T02:45:44;0.50;99.90
24448;DHT22;13348;50.984;5.822;2024-01-15T02:48:11;0.50;99.90
24448;DHT22;13348;50.984;5.822;2024-01-15T02:50:38;0.50;99.90
24448;DHT22;13348;50.984;5.822;2024-01-15T02:53:05;0.50;99.90
24448;DHT22;13348;50.984;5.822;2024-01-15T02:55:32;0.40;99.90
24448;DHT22;13348;50.984;5.822;2024-01-15T02:58:01;0.40;99.90
24448;DHT22;13348;50.984;5.822;2024-01-15T03:00:28;0.40;99.90
24448;DHT22;13348;50.984;5.822;2024-01-15T03:02:55;0.50;99.90
24448;DHT22;13348;50.984;5.822;2024-01-15T03:05:22;0.50;99.90
24448;DHT22;13348;50.984;5.822;2024-01-15T03:07:49;0.50;99.90
24448;DHT22;13348;50.984;5.822;2024-01-15T03:10:16;0.40;99.90
24448;DHT22;13348;50.984;5.822;2024-01-15T03:12:43;0.40;99.90
24448;DHT22;13348;50.984;5.822;2024-01-15T03:15:11;0.40;99.90
24448;DHT22;13348;50.984;5.822;2024-01-15T03:17:38;0.40;99.90
24448;DHT22;13348;50.984;5.822;2024-01-15T03:20:06;0.50;99.90
24448;DHT22;13348;50.984;5.822;2024-01-15T03:22:33;0.40;99.90
24448;DHT22;13348;50.984;5.822;2024-01-15T03:24:59;0.50;99.90
24448;DHT22;13348;50.984;5.822;2024-01-15T03:27:27;0.50;99.90
24448;DHT22;13348;50.984;5.822;2024-01-15T03:29:54;0.50;99.90
24448;DHT22;13348;50.984;5.822;2024-01-15T03:32:22;0.50;99.90
24448;DHT22;13348;50.984;5.822;2024-01-15T03:34:49;0.60;99.90
24448;DHT22;13348;50.984;5.822;2024-01-15T03:37:18;0.60;99.90
24448;DHT22;13348;50.984;5.822;2024-01-15T03:39:45;0.60;99.90
24448;DHT22;13348;50.984;5.822;2024-01-15T03:42:12;0.60;99.90
24448;DHT22;13348;50.984;5.822;2024-01-15T03:44:39;0.60;99.90
24448;DHT22;13348;50.984;5.822;2024-01-15T03:47:06;0.60;99.90
24448;DHT22;13348;50.984;5.822;2024-01-15T03:49:35;0.60;99.90
24448;DHT22;13348;50.984;5.822;2024-01-15T03:52:02;0.60;99.90
24448;DHT22;13348;50.984;5.822;2024-01-15T03:54:29;0.60;99.90
24448;DHT22;13348;50.984;5.822;2024-01-15T03:56:56;0.60;99.90
24448;DHT22;13348;50.984;5.822;2024-01-15T03:59:23;0.70;99.90
24448;DHT22;13348;50.984;5.822;2024-01-15T04:01:50;0.60;99.90
24448;DHT22;13348;50.984;5.822;2024-01-15T04:04:17;0.60;99.90
24448;DHT22;13348;50.984;5.822;2024-01-15T04:06:46;0.60;99.90
24448;DHT22;13348;50.984;5.822;2024-01-15T04:09:13;0.60;99.90
24448;DHT22;13348;50.984;5.822;2024-01-15T04:11:40;0.70;99.90
24448;DHT22;13348;50.984;5.822;2024-01-15T04:14:07;0.70;99.90
24448;DHT22;13348;50.984;5.822;2024-01-15T04:16:34;0.80;99.90
24448;DHT22;13348;50.984;5.822;2024-01-15T04:19:01;0.70;99.90
24448;DHT22;13348;50.984;5.822;2024-01-15T04:21:28;0.70;99.90
24448;DHT22;13348;50.984;5.822;2024-01-15T04:23:57;0.70;99.90
24448;DHT22;13348;50.984;5.822;2024-01-15T04:26:24;0.60;99.90
24448;DHT22;13348;50.984;5.822;2024-01-15T04:28:51;0.60;99.90
24448;DHT22;13348;50.984;5.822;2024-01-15T04:31:21;0.60;99.90
24448;DHT22;13348;50.984;5.822;2024-01-15T04:33:48;0.60;99.90
24448;DHT22;13348;50.984;5.822;2024-01-15T04:36:15;0.60;99.90
24448;DHT22;13348;50.984;5.822;2024-01-15T04:38:42;0.60;99.90
24448;DHT22;13348;50.984;5.822;2024-01-15T04:41:12;0.50;99.90
24448;DHT22;13348;50.984;5.822;2024-01-15T04:43:39;0.60;99.90
24448;DHT22;13348;50.984;5.822;2024-01-15T04:46:06;0.60;99.90
24448;DHT22;13348;50.984;5.822;2024-01-15T04:48:33;0.60;99.90
24448;DHT22;13348;50.984;5.822;2024-01-15T04:51:01;0.50;99.90
24448;DHT22;13348;50.984;5.822;2024-01-15T04:53:30;0.50;99.90
24448;DHT22;13348;50.984;5.822;2024-01-15T04:55:57;0.50;99.90
24448;DHT22;13348;50.984;5.822;2024-01-15T04:58:25;0.60;99.90
24448;DHT22;13348;50.984;5.822;2024-01-15T05:00:52;0.60;99.90
24448;DHT22;13348;50.984;5.822;2024-01-15T05:03:20;0.60;99.90
24448;DHT22;13348;50.984;5.822;2024-01-15T05:05:47;0.60;99.90
24448;DHT22;13348;50.984;5.822;2024-01-15T05:08:14;0.60;99.90
24448;DHT22;13348;50.984;5.822;2024-01-15T05:10:41;0.60;99.90
24448;DHT22;13348;50.984;5.822;2024-01-15T05:13:08;0.70;99.90
24448;DHT22;13348;50.984;5.822;2024-01-15T05:15:36;0.60;99.90
24448;DHT22;13348;50.984;5.822;2024-01-15T05:18:03;0.50;99.90
24448;DHT22;13348;50.984;5.822;2024-01-15T05:20:30;0.60;99.90
24448;DHT22;13348;50.984;5.822;2024-01-15T05:22:57;0.50;99.90
24448;DHT22;13348;50.984;5.822;2024-01-15T05:25:24;0.50;99.90
24448;DHT22;13348;50.984;5.822;2024-01-15T05:27:51;0.60;99.90
24448;DHT22;13348;50.984;5.822;2024-01-15T05:30:18;0.50;99.90
24448;DHT22;13348;50.984;5.822;2024-01-15T05:32:47;0.50;99.90
24448;DHT22;13348;50.984;5.822;2024-01-15T05:35:14;0.50;99.90
24448;DHT22;13348;50.984;5.822;2024-01-15T05:37:43;0.50;99.90
24448;DHT22;13348;50.984;5.822;2024-01-15T05:40:10;0.50;99.90
24448;DHT22;13348;50.984;5.822;2024-01-15T05:42:37;0.60;99.90
24448;DHT22;13348;50.984;5.822;2024-01-15T05:45:05;0.50;99.90
24448;DHT22;13348;50.984;5.822;2024-01-15T05:47:32;0.60;99.90
24448;DHT22;13348;50.984;5.822;2024-01-15T05:50:01;0.60;99.90
24448;DHT22;13348;50.984;5.822;2024-01-15T05:52:28;0.70;99.90
24448;DHT22;13348;50.984;5.822;2024-01-15T05:54:55;0.70;99.90
24448;DHT22;13348;50.984;5.822;2024-01-15T05:57:22;0.70;99.90
24448;DHT22;13348;50.984;5.822;2024-01-15T05:59:49;0.60;99.90
24448;DHT22;13348;50.984;5.822;2024-01-15T06:02:16;0.60;99.90
24448;DHT22;13348;50.984;5.822;2024-01-15T06:04:43;0.60;99.90
24448;DHT22;13348;50.984;5.822;2024-01-15T06:07:11;0.70;99.90
24448;DHT22;13348;50.984;5.822;2024-01-15T06:09:38;0.70;99.90
24448;DHT22;13348;50.984;5.822;2024-01-15T06:12:06;0.70;99.90
24448;DHT22;13348;50.984;5.822;2024-01-15T06:14:33;0.70;99.90
24448;DHT22;13348;50.984;5.822;2024-01-15T06:17:00;0.70;99.90
24448;DHT22;13348;50.984;5.822;2024-01-15T06:19:28;0.70;99.90
24448;DHT22;13348;50.984;5.822;2024-01-15T06:21:55;0.70;99.90
24448;DHT22;13348;50.984;5.822;2024-01-15T06:24:23;0.70;99.90
24448;DHT22;13348;50.984;5.822;2024-01-15T06:26:50;0.70;99.90
24448;DHT22;13348;50.984;5.822;2024-01-15T06:29:17;0.70;99.90
24448;DHT22;13348;50.984;5.822;2024-01-15T06:31:44;0.70;99.90
24448;DHT22;13348;50.984;5.822;2024-01-15T06:34:11;0.70;99.90
24448;DHT22;13348;50.984;5.822;2024-01-15T06:36:38;0.70;99.90
24448;DHT22;13348;50.984;5.822;2024-01-15T06:39:05;0.70;99.90
24448;DHT22;13348;50.984;5.822;2024-01-15T06:41:33;0.80;99.90
24448;DHT22;13348;50.984;5.822;2024-01-15T06:44:00;0.70;99.90
24448;DHT22;13348;50.984;5.822;2024-01-15T06:46:27;0.70;99.90
24448;DHT22;13348;50.984;5.822;2024-01-15T06:48:56;0.70;99.90
24448;DHT22;13348;50.984;5.822;2024-01-15T06:51:23;0.70;99.90
24448;DHT22;13348;50.984;5.822;2024-01-15T06:53:49;0.60;99.90
24448;DHT22;13348;50.984;5.822;2024-01-15T06:56:16;0.70;99.90
24448;DHT22;13348;50.984;5.822;2024-01-15T06:58:45;0.60;99.90
24448;DHT22;13348;50.984;5.822;2024-01-15T07:01:12;0.70;99.90
24448;DHT22;13348;50.984;5.822;2024-01-15T07:03:39;0.70;99.90
24448;DHT22;13348;50.984;5.822;2024-01-15T07:06:06;0.70;99.90
24448;DHT22;13348;50.984;5.822;2024-01-15T07:08:32;0.70;99.90
24448;DHT22;13348;50.984;5.822;2024-01-15T07:11:03;0.70;99.90
24448;DHT22;13348;50.984;5.822;2024-01-15T07:13:30;0.70;99.90
24448;DHT22;13348;50.984;5.822;2024-01-15T07:15:58;0.70;99.90
24448;DHT22;13348;50.984;5.822;2024-01-15T07:18:25;0.60;99.90
24448;DHT22;13348;50.984;5.822;2024-01-15T07:20:52;0.60;99.90
24448;DHT22;13348;50.984;5.822;2024-01-15T07:23:19;0.60;99.90
24448;DHT22;13348;50.984;5.822;2024-01-15T07:25:46;0.60;99.90
24448;DHT22;13348;50.984;5.822;2024-01-15T07:28:13;0.60;99.90
24448;DHT22;13348;50.984;5.822;2024-01-15T07:30:41;0.60;99.90
24448;DHT22;13348;50.984;5.822;2024-01-15T07:33:09;0.60;99.90
24448;DHT22;13348;50.984;5.822;2024-01-15T07:35:36;0.60;99.90
24448;DHT22;13348;50.984;5.822;2024-01-15T07:38:03;0.60;99.90
24448;DHT22;13348;50.984;5.822;2024-01-15T07:40:30;0.60;99.90
24448;DHT22;13348;50.984;5.822;2024-01-15T07:42:57;0.70;99.90
24448;DHT22;13348;50.984;5.822;2024-01-15T07:45:24;0.70;99.90
24448;DHT22;13348;50.984;5.822;2024-01-15T07:47:51;0.70;99.90
24448;DHT22;13348;50.984;5.822;2024-01-15T07:50:20;0.60;99.90
24448;DHT22;13348;50.984;5.822;2024-01-15T07:52:46;0.60;99.90
24448;DHT22;13348;50.984;5.822;2024-01-15T07:55:14;0.70;99.90
24448;DHT22;13348;50.984;5.822;2024-01-15T07:57:41;0.70;99.90
24448;DHT22;13348;50.984;5.822;2024-01-15T08:00:08;0.70;99.90
24448;DHT22;13348;50.984;5.822;2024-01-15T08:02:36;0.60;99.90
24448;DHT22;13348;50.984;5.822;2024-01-15T08:05:04;0.60;99.90
24448;DHT22;13348;50.984;5.822;2024-01-15T08:07:32;0.60;99.90
24448;DHT22;13348;50.984;5.822;2024-01-15T08:09:59;0.60;99.90
24448;DHT22;13348;50.984;5.822;2024-01-15T08:12:26;0.60;99.90
24448;DHT22;13348;50.984;5.822;2024-01-15T08:14:53;0.60;99.90
24448;DHT22;13348;50.984;5.822;2024-01-15T08:17:20;0.60;99.90
24448;DHT22;13348;50.984;5.822;2024-01-15T08:19:47;0.60;99.90
24448;DHT22;13348;50.984;5.822;2024-01-15T08:22:14;0.60;99.90
24448;DHT22;13348;50.984;5.822;2024-01-15T08:24:43;0.70;99.90
24448;DHT22;13348;50.984;5.822;2024-01-15T08:27:11;0.70;99.90
24448;DHT22;13348;50.984;5.822;2024-01-15T08:29:38;0.70;99.90
24448;DHT22;13348;50.984;5.822;2024-01-15T08:32:05;0.80;99.90
24448;DHT22;13348;50.984;5.822;2024-01-15T08:34:32;0.80;99.90
24448;DHT22;13348;50.984;5.822;2024-01-15T08:36:59;0.90;99.90
24448;DHT22;13348;50.984;5.822;2024-01-15T08:39:26;0.90;99.90
24448;DHT22;13348;50.984;5.822;2024-01-15T08:41:54;0.90;99.90
24448;DHT22;13348;50.984;5.822;2024-01-15T08:44:21;1.00;99.90
24448;DHT22;13348;50.984;5.822;2024-01-15T08:46:48;1.00;99.90
24448;DHT22;13348;50.984;5.822;2024-01-15T08:49:15;1.00;99.90
24448;DHT22;13348;50.984;5.822;2024-01-15T08:51:42;1.00;99.90
24448;DHT22;13348;50.984;5.822;2024-01-15T08:54:09;1.10;99.90
24448;DHT22;13348;50.984;5.822;2024-01-15T08:56:36;1.00;99.90
24448;DHT22;13348;50.984;5.822;2024-01-15T08:59:04;1.00;99.90
24448;DHT22;13348;50.984;5.822;2024-01-15T09:01:31;0.90;99.90
24448;DHT22;13348;50.984;5.822;2024-01-15T09:03:58;0.90;99.90
24448;DHT22;13348;50.984;5.822;2024-01-15T09:06:25;0.90;99.90
24448;DHT22;13348;50.984;5.822;2024-01-15T09:08:52;0.90;99.90
24448;DHT22;13348;50.984;5.822;2024-01-15T09:11:18;0.80;99.90
24448;DHT22;13348;50.984;5.822;2024-01-15T09:13:45;0.80;99.90
24448;DHT22;13348;50.984;5.822;2024-01-15T09:16:14;0.70;99.90
24448;DHT22;13348;50.984;5.822;2024-01-15T09:18:41;0.70;99.90
24448;DHT22;13348;50.984;5.822;2024-01-15T09:21:08;0.70;99.90
24448;DHT22;13348;50.984;5.822;2024-01-15T09:23:35;0.70;99.90
24448;DHT22;13348;50.984;5.822;2024-01-15T09:26:02;0.60;99.90
24448;DHT22;13348;50.984;5.822;2024-01-15T09:28:29;0.60;99.90
24448;DHT22;13348;50.984;5.822;2024-01-15T09:30:56;0.50;99.90
24448;DHT22;13348;50.984;5.822;2024-01-15T09:33:24;0.50;99.90
24448;DHT22;13348;50.984;5.822;2024-01-15T09:35:51;0.50;99.90
24448;DHT22;13348;50.984;5.822;2024-01-15T09:38:18;0.50;99.90
24448;DHT22;13348;50.984;5.822;2024-01-15T09:40:45;0.50;99.90
24448;DHT22;13348;50.984;5.822;2024-01-15T09:43:12;0.50;99.90
24448;DHT22;13348;50.984;5.822;2024-01-15T09:45:39;0.50;99.90
24448;DHT22;13348;50.984;5.822;2024-01-15T09:48:07;0.60;99.90
24448;DHT22;13348;50.984;5.822;2024-01-15T09:50:35;0.60;99.90
24448;DHT22;13348;50.984;5.822;2024-01-15T09:53:02;0.60;99.90
24448;DHT22;13348;50.984;5.822;2024-01-15T09:55:30;0.60;99.90
24448;DHT22;13348;50.984;5.822;2024-01-15T09:57:58;0.60;99.90
24448;DHT22;13348;50.984;5.822;2024-01-15T10:00:26;0.60;99.90
24448;DHT22;13348;50.984;5.822;2024-01-15T10:02:54;0.60;99.90
24448;DHT22;13348;50.984;5.822;2024-01-15T10:05:21;0.60;99.90
24448;DHT22;13348;50.984;5.822;2024-01-15T10:07:49;0.70;99.90
24448;DHT22;13348;50.984;5.822;2024-01-15T10:10:17;0.80;99.90
24448;DHT22;13348;50.984;5.822;2024-01-15T10:12:44;0.80;99.90
24448;DHT22;13348;50.984;5.822;2024-01-15T10:15:11;0.80;99.90
24448;DHT22;13348;50.984;5.822;2024-01-15T10:17:40;0.90;99.90
24448;DHT22;13348;50.984;5.822;2024-01-15T10:20:08;0.90;99.90
24448;DHT22;13348;50.984;5.822;2024-01-15T10:22:35;0.90;99.90
24448;DHT22;13348;50.984;5.822;2024-01-15T10:25:05;1.00;99.90
24448;DHT22;13348;50.984;5.822;2024-01-15T10:27:32;1.00;99.90
24448;DHT22;13348;50.984;5.822;2024-01-15T10:29:59;1.10;99.90
24448;DHT22;13348;50.984;5.822;2024-01-15T10:32:26;1.00;99.90
24448;DHT22;13348;50.984;5.822;2024-01-15T10:34:54;1.10;99.90
24448;DHT22;13348;50.984;5.822;2024-01-15T10:37:21;1.20;99.90
24448;DHT22;13348;50.984;5.822;2024-01-15T10:39:50;1.20;99.90
24448;DHT22;13348;50.984;5.822;2024-01-15T10:42:19;1.20;99.90
24448;DHT22;13348;50.984;5.822;2024-01-15T10:44:46;1.40;99.90
24448;DHT22;13348;50.984;5.822;2024-01-15T10:47:13;1.70;99.90
24448;DHT22;13348;50.984;5.822;2024-01-15T10:49:40;1.90;99.90
24448;DHT22;13348;50.984;5.822;2024-01-15T10:52:07;1.90;99.90
24448;DHT22;13348;50.984;5.822;2024-01-15T10:54:34;1.70;99.90
24448;DHT22;13348;50.984;5.822;2024-01-15T10:57:02;1.80;99.90
24448;DHT22;13348;50.984;5.822;2024-01-15T10:59:31;1.90;99.90
24448;DHT22;13348;50.984;5.822;2024-01-15T11:01:58;2.40;99.90
24448;DHT22;13348;50.984;5.822;2024-01-15T11:04:25;3.30;99.90
24448;DHT22;13348;50.984;5.822;2024-01-15T11:06:54;3.70;99.90
24448;DHT22;13348;50.984;5.822;2024-01-15T11:09:22;4.00;99.90
24448;DHT22;13348;50.984;5.822;2024-01-15T11:11:51;3.50;99.90
24448;DHT22;13348;50.984;5.822;2024-01-15T11:14:38;3.40;99.90
24448;DHT22;13348;50.984;5.822;2024-01-15T11:17:05;3.70;99.90
24448;DHT22;13348;50.984;5.822;2024-01-15T11:19:35;3.80;99.90
24448;DHT22;13348;50.984;5.822;2024-01-15T11:22:03;4.50;99.90
24448;DHT22;13348;50.984;5.822;2024-01-15T11:24:37;4.90;99.90
24448;DHT22;13348;50.984;5.822;2024-01-15T11:27:04;5.20;99.90
24448;DHT22;13348;50.984;5.822;2024-01-15T11:29:32;5.80;99.90
24448;DHT22;13348;50.984;5.822;2024-01-15T11:32:02;6.20;99.90
24448;DHT22;13348;50.984;5.822;2024-01-15T11:37:15;4.60;99.90
24448;DHT22;13348;50.984;5.822;2024-01-15T11:39:42;3.60;99.90
24448;DHT22;13348;50.984;5.822;2024-01-15T11:42:10;3.10;99.90
24448;DHT22;13348;50.984;5.822;2024-01-15T11:44:37;2.90;99.90
24448;DHT22;13348;50.984;5.822;2024-01-15T11:47:06;2.60;99.90
24448;DHT22;13348;50.984;5.822;2024-01-15T11:49:39;2.50;99.90
24448;DHT22;13348;50.984;5.822;2024-01-15T11:52:09;2.40;99.90
24448;DHT22;13348;50.984;5.822;2024-01-15T11:54:37;2.30;99.90
24448;DHT22;13348;50.984;5.822;2024-01-15T11:57:07;2.10;99.90
24448;DHT22;13348;50.984;5.822;2024-01-15T11:59:36;2.10;99.90
24448;DHT22;13348;50.984;5.822;2024-01-15T12:02:03;2.00;99.90
24448;DHT22;13348;50.984;5.822;2024-01-15T12:04:31;1.70;99.90
24448;DHT22;13348;50.984;5.822;2024-01-15T12:06:58;1.60;99.90
24448;DHT22;13348;50.984;5.822;2024-01-15T12:09:25;1.30;99.90
24448;DHT22;13348;50.984;5.822;2024-01-15T12:11:54;1.10;99.90
24448;DHT22;13348;50.984;5.822;2024-01-15T12:14:24;1.10;99.90
24448;DHT22;13348;50.984;5.822;2024-01-15T12:16:52;1.10;99.90
24448;DHT22;13348;50.984;5.822;2024-01-15T12:19:19;1.20;99.90
24448;DHT22;13348;50.984;5.822;2024-01-15T12:21:47;1.20;99.90
24448;DHT22;13348;50.984;5.822;2024-01-15T12:24:14;1.30;99.90
24448;DHT22;13348;50.984;5.822;2024-01-15T12:26:43;1.20;99.90
24448;DHT22;13348;50.984;5.822;2024-01-15T12:29:10;1.00;99.90
24448;DHT22;13348;50.984;5.822;2024-01-15T12:31:37;0.90;99.90
24448;DHT22;13348;50.984;5.822;2024-01-15T12:34:04;1.00;99.90
24448;DHT22;13348;50.984;5.822;2024-01-15T12:36:32;1.10;99.90
24448;DHT22;13348;50.984;5.822;2024-01-15T12:39:00;1.30;99.90
24448;DHT22;13348;50.984;5.822;2024-01-15T12:41:27;1.50;99.90
24448;DHT22;13348;50.984;5.822;2024-01-15T12:43:54;1.50;99.90
24448;DHT22;13348;50.984;5.822;2024-01-15T12:46:22;1.50;99.90
24448;DHT22;13348;50.984;5.822;2024-01-15T12:48:50;1.50;99.90
24448;DHT22;13348;50.984;5.822;2024-01-15T12:51:17;1.40;99.90
24448;DHT22;13348;50.984;5.822;2024-01-15T12:53:44;1.50;99.90
24448;DHT22;13348;50.984;5.822;2024-01-15T12:56:12;1.50;99.90
24448;DHT22;13348;50.984;5.822;2024-01-15T12:58:39;1.70;99.90
24448;DHT22;13348;50.984;5.822;2024-01-15T13:01:06;1.70;99.90
24448;DHT22;13348;50.984;5.822;2024-01-15T13:03:33;1.60;99.90
24448;DHT22;13348;50.984;5.822;2024-01-15T13:06:00;1.40;99.90
24448;DHT22;13348;50.984;5.822;2024-01-15T13:08:27;1.40;99.90
24448;DHT22;13348;50.984;5.822;2024-01-15T13:10:55;1.30;99.90
24448;DHT22;13348;50.984;5.822;2024-01-15T13:13:24;1.40;99.90
24448;DHT22;13348;50.984;5.822;2024-01-15T13:15:51;1.30;99.90
24448;DHT22;13348;50.984;5.822;2024-01-15T13:18:18;1.20;99.90
24448;DHT22;13348;50.984;5.822;2024-01-15T13:20:45;1.20;99.90
24448;DHT22;13348;50.984;5.822;2024-01-15T13:23:12;1.20;99.90
24448;DHT22;13348;50.984;5.822;2024-01-15T13:25:39;1.30;99.90
24448;DHT22;13348;50.984;5.822;2024-01-15T13:28:06;1.40;99.90
24448;DHT22;13348;50.984;5.822;2024-01-15T13:30:34;1.40;99.90
24448;DHT22;13348;50.984;5.822;2024-01-15T13:33:02;1.40;99.90
24448;DHT22;13348;50.984;5.822;2024-01-15T13:35:30;1.50;99.90
24448;DHT22;13348;50.984;5.822;2024-01-15T13:37:57;1.50;99.90
24448;DHT22;13348;50.984;5.822;2024-01-15T13:40:24;1.50;99.90
24448;DHT22;13348;50.984;5.822;2024-01-15T13:42:51;1.50;99.90
24448;DHT22;13348;50.984;5.822;2024-01-15T13:45:20;1.50;99.90
24448;DHT22;13348;50.984;5.822;2024-01-15T13:47:50;1.60;99.90
24448;DHT22;13348;50.984;5.822;2024-01-15T13:50:17;1.60;99.90
24448;DHT22;13348;50.984;5.822;2024-01-15T13:52:45;1.50;99.90
24448;DHT22;13348;50.984;5.822;2024-01-15T13:55:12;1.50;99.90
24448;DHT22;13348;50.984;5.822;2024-01-15T13:57:39;1.50;99.90
24448;DHT22;13348;50.984;5.822;2024-01-15T14:00:06;1.60;99.90
24448;DHT22;13348;50.984;5.822;2024-01-15T14:02:36;1.50;99.90
24448;DHT22;13348;50.984;5.822;2024-01-15T14:05:05;1.50;99.90
24448;DHT22;13348;50.984;5.822;2024-01-15T14:07:33;1.50;99.90
24448;DHT22;13348;50.984;5.822;2024-01-15T14:10:00;1.50;99.90
24448;DHT22;13348;50.984;5.822;2024-01-15T14:12:27;1.50;99.90
24448;DHT22;13348;50.984;5.822;2024-01-15T14:14:53;1.50;99.90
24448;DHT22;13348;50.984;5.822;2024-01-15T14:17:21;1.60;99.90
24448;DHT22;13348;50.984;5.822;2024-01-15T14:19:47;1.60;99.90
24448;DHT22;13348;50.984;5.822;2024-01-15T14:22:16;1.70;99.90
24448;DHT22;13348;50.984;5.822;2024-01-15T14:24:43;1.80;99.90
24448;DHT22;13348;50.984;5.822;2024-01-15T14:27:10;1.80;99.90
24448;DHT22;13348;50.984;5.822;2024-01-15T14:29:37;1.90;99.90
24448;DHT22;13348;50.984;5.822;2024-01-15T14:32:04;1.90;99.90
24448;DHT22;13348;50.984;5.822;2024-01-15T14:34:31;2.00;99.90
24448;DHT22;13348;50.984;5.822;2024-01-15T14:36:58;2.00;99.90
24448;DHT22;13348;50.984;5.822;2024-01-15T14:39:26;2.10;99.90
24448;DHT22;13348;50.984;5.822;2024-01-15T14:41:53;2.10;99.90
24448;DHT22;13348;50.984;5.822;2024-01-15T14:44:20;2.00;99.90
24448;DHT22;13348;50.984;5.822;2024-01-15T14:46:48;1.90;99.90
24448;DHT22;13348;50.984;5.822;2024-01-15T14:49:15;1.80;99.90
24448;DHT22;13348;50.984;5.822;2024-01-15T14:51:43;1.70;99.90
24448;DHT22;13348;50.984;5.822;2024-01-15T14:54:10;1.80;99.90
24448;DHT22;13348;50.984;5.822;2024-01-15T14:56:38;1.70;99.90
24448;DHT22;13348;50.984;5.822;2024-01-15T14:59:05;1.90;99.90
24448;DHT22;13348;50.984;5.822;2024-01-15T15:01:32;1.80;99.90
24448;DHT22;13348;50.984;5.822;2024-01-15T15:03:59;1.60;99.90
24448;DHT22;13348;50.984;5.822;2024-01-15T15:06:26;1.60;99.90
24448;DHT22;13348;50.984;5.822;2024-01-15T15:08:53;1.50;99.90
24448;DHT22;13348;50.984;5.822;2024-01-15T15:11:21;1.50;99.90
24448;DHT22;13348;50.984;5.822;2024-01-15T15:13:50;1.50;99.90
24448;DHT22;13348;50.984;5.822;2024-01-15T15:16:17;1.60;99.90
24448;DHT22;13348;50.984;5.822;2024-01-15T15:18:44;1.60;99.90
24448;DHT22;13348;50.984;5.822;2024-01-15T15:21:11;1.50;99.90
24448;DHT22;13348;50.984;5.822;2024-01-15T15:23:38;1.40;99.90
24448;DHT22;13348;50.984;5.822;2024-01-15T15:26:05;1.40;99.90
24448;DHT22;13348;50.984;5.822;2024-01-15T15:28:32;1.30;99.90
24448;DHT22;13348;50.984;5.822;2024-01-15T15:31:03;1.30;99.90
24448;DHT22;13348;50.984;5.822;2024-01-15T15:33:33;1.30;99.90
24448;DHT22;13348;50.984;5.822;2024-01-15T15:35:59;1.30;99.90
24448;DHT22;13348;50.984;5.822;2024-01-15T15:38:30;1.30;99.90
24448;DHT22;13348;50.984;5.822;2024-01-15T15:40:57;1.30;99.90
24448;DHT22;13348;50.984;5.822;2024-01-15T15:43:25;1.20;99.90
24448;DHT22;13348;50.984;5.822;2024-01-15T15:45:52;1.20;99.90
24448;DHT22;13348;50.984;5.822;2024-01-15T15:48:20;1.20;99.90